Time;durP1;ratioP1;P1;durP2;ratioP2;P2;SDS_P1;SDS_P2;PMS_P1;PMS_P2;Temp;Humidity;BMP_temperature;BMP_pressure;BME280_temperature;BME280_humidity;BME280_pressure;Samples;Min_cycle;Max_cycle;Signal;HPM_P1;HPM_P2
2022/06/20 00:00:09;;;;;;;;;37.75;34.00;;;;;19.86;67.90;101037.13;2393868;28;45239;-91
2022/06/20 00:01:20;;;;;;;;;40.50;33.75;;;;;19.92;68.03;101038.53;2392936;28;46533;-92
2022/06/20 00:02:31;;;;;;;;;37.50;33.50;;;;;19.98;68.00;101030.09;2392686;28;45345;-92
2022/06/20 00:03:47;;;;;;;;;39.25;32.75;;;;;20.01;68.34;101027.22;2399604;28;47229;-92
2022/06/20 00:05:02;;;;;;;;;32.50;29.25;;;;;20.05;67.54;101032.34;2400952;28;45274;-93
2022/06/20 00:06:15;;;;;;;;;36.00;31.50;;;;;20.07;67.65;101027.75;2395675;28;48425;-93
2022/06/20 00:07:25;;;;;;;;;40.25;34.75;;;;;20.11;67.36;101031.94;2399146;28;45302;-92
2022/06/20 00:08:36;;;;;;;;;29.00;24.75;;;;;20.12;67.74;101037.16;2385986;28;47354;-94
2022/06/20 00:09:47;;;;;;;;;41.25;34.50;;;;;20.19;67.50;101036.75;2389119;28;44692;-92
2022/06/20 00:10:57;;;;;;;;;30.50;26.50;;;;;20.21;67.47;101033.03;2402151;28;45348;-88
2022/06/20 00:12:14;;;;;;;;;40.75;33.00;;;;;20.22;67.16;101033.88;2392825;28;45251;-88
2022/06/20 00:13:31;;;;;;;;;36.25;32.50;;;;;20.22;66.90;101048.06;2395890;28;47397;-88
2022/06/20 00:14:41;;;;;;;;;38.00;34.00;;;;;20.21;66.88;101048.16;2402010;28;45250;-89
2022/06/20 00:15:56;;;;;;;;;32.50;31.00;;;;;20.21;67.71;101061.50;2399012;28;46368;-88
2022/06/20 00:17:11;;;;;;;;;41.25;33.75;;;;;20.22;67.47;101064.06;2401896;28;45259;-88
2022/06/20 00:18:22;;;;;;;;;38.00;31.75;;;;;20.27;67.36;101062.91;2391802;28;47121;-89
2022/06/20 00:19:32;;;;;;;;;35.50;30.50;;;;;20.29;67.41;101064.50;2392392;28;45473;-91
2022/06/20 00:20:43;;;;;;;;;38.50;34.25;;;;;20.31;67.28;101057.25;2393133;28;45372;-91
2022/06/20 00:21:54;;;;;;;;;31.25;29.00;;;;;20.33;66.83;101059.81;2392813;28;45266;-90
2022/06/20 00:23:04;;;;;;;;;38.25;31.75;;;;;20.34;67.00;101065.06;2393101;28;45569;-91
2022/06/20 00:24:14;;;;;;;;;29.75;25.00;;;;;20.37;67.27;101061.31;2392091;28;45312;-94
2022/06/20 00:25:25;;;;;;;;;37.00;34.00;;;;;20.40;67.09;101050.41;2395229;28;46941;-96
2022/06/20 00:26:36;;;;;;;;;29.25;26.00;;;;;20.42;67.33;101040.47;2393348;28;45256;-96
2022/06/20 00:27:47;;;;;;;;;37.75;31.75;;;;;20.45;67.50;101037.59;2395482;28;46986;-95
2022/06/20 00:28:58;;;;;;;;;37.00;31.25;;;;;20.50;67.12;101025.72;2393363;28;45199;-95
2022/06/20 00:30:10;;;;;;;;;31.25;29.75;;;;;20.53;67.19;101015.69;2384465;28;47034;-95
2022/06/20 00:31:21;;;;;;;;;31.50;29.75;;;;;20.53;67.18;101006.81;2393318;28;45457;-95
2022/06/20 00:32:32;;;;;;;;;35.25;31.50;;;;;20.56;67.38;101003.94;2383983;28;47034;-94
2022/06/20 00:33:43;;;;;;;;;28.50;28.00;;;;;20.57;67.17;100984.25;2383816;28;45381;-94
2022/06/20 00:34:53;;;;;;;;;31.25;27.25;;;;;20.59;67.03;100982.38;2395346;28;47961;-94
2022/06/20 00:36:04;;;;;;;;;36.00;28.50;;;;;20.59;67.03;100974.34;2401155;28;45458;-91
2022/06/20 00:37:19;;;;;;;;;33.50;28.25;;;;;20.60;66.98;100975.19;2399167;28;47039;-88
2022/06/20 00:38:29;;;;;;;;;30.00;29.00;;;;;20.59;66.83;100971.69;2392477;28;45310;-88
2022/06/20 00:39:40;;;;;;;;;31.25;29.00;;;;;20.61;66.73;100972.44;2391939;28;47962;-88
2022/06/20 00:40:54;;;;;;;;;36.00;27.50;;;;;20.62;66.39;100966.09;2394891;28;45473;-88
2022/06/20 00:42:04;;;;;;;;;30.00;26.25;;;;;20.62;66.41;100971.44;2398768;28;45765;-89
2022/06/20 00:43:33;;;;;;;;;37.75;28.75;;;;;20.61;66.23;100979.56;2393266;28;45232;-88
2022/06/20 00:44:50;;;;;;;;;30.75;29.50;;;;;20.58;66.72;100976.16;2392292;28;47113;-88
2022/06/20 00:46:09;;;;;;;;;30.50;28.75;;;;;20.57;66.45;100974.44;2394648;28;45377;-88
2022/06/20 00:47:25;;;;;;;;;30.50;27.75;;;;;20.59;66.64;100985.03;2393088;28;46586;-88
2022/06/20 00:48:46;;;;;;;;;33.50;27.50;;;;;20.59;66.58;100966.34;2393214;28;45233;-88
2022/06/20 00:50:19;;;;;;;;;35.75;30.00;;;;;20.59;66.55;100961.00;2392627;28;45655;-88
2022/06/20 00:51:47;;;;;;;;;33.50;31.25;;;;;20.58;66.34;100956.63;2393087;28;45427;-88
2022/06/20 00:53:22;;;;;;;;;33.75;32.25;;;;;20.57;66.54;100954.91;2393019;28;46575;-89
2022/06/20 00:54:43;;;;;;;;;36.25;31.00;;;;;20.58;66.85;100956.63;2401516;28;45318;-89
2022/06/20 00:56:04;;;;;;;;;32.50;30.75;;;;;20.58;67.10;100951.28;2397667;28;45483;-89
2022/06/20 00:57:33;;;;;;;;;37.00;31.50;;;;;20.57;67.08;100953.09;2393308;28;45523;-90
2022/06/20 00:58:52;;;;;;;;;33.75;30.75;;;;;20.58;66.45;100959.28;2392978;28;46782;-89
2022/06/20 01:00:09;;;;;;;;;32.50;29.50;;;;;20.57;66.75;100965.56;2393319;28;45359;-91
2022/06/20 01:01:27;;;;;;;;;34.75;28.25;;;;;20.57;66.58;100979.78;2392569;28;46888;-91
2022/06/20 01:02:42;;;;;;;;;31.00;28.00;;;;;20.57;66.62;101005.63;2396524;28;45271;-91
2022/06/20 01:03:58;;;;;;;;;38.50;32.25;;;;;20.56;66.79;101020.81;2392671;28;45443;-92
2022/06/20 01:05:20;;;;;;;;;37.25;31.50;;;;;20.52;66.10;101037.16;2393590;28;44921;-92
2022/06/20 01:06:34;;;;;;;;;30.25;29.25;;;;;20.48;66.25;101043.66;2401680;28;47130;-92
2022/06/20 01:07:54;;;;;;;;;31.50;30.00;;;;;20.45;66.38;101045.59;2396067;28;45206;-92
2022/06/20 01:09:08;;;;;;;;;34.00;31.25;;;;;20.42;66.86;101034.28;2392573;28;46643;-92
2022/06/20 01:10:19;;;;;;;;;32.75;31.25;;;;;20.45;66.74;101037.59;2401764;28;44724;-92
2022/06/20 01:11:43;;;;;;;;;33.25;29.25;;;;;20.44;66.70;101043.03;2401583;28;47163;-91
2022/06/20 01:13:16;;;;;;;;;31.00;30.25;;;;;20.40;66.55;101045.06;2399490;28;44779;-93
2022/06/20 01:14:37;;;;;;;;;32.00;30.50;;;;;20.35;66.31;101048.06;2397381;28;46243;-93
2022/06/20 01:15:51;;;;;;;;;35.00;31.25;;;;;20.31;66.74;101048.38;2395976;28;45377;-92
2022/06/20 01:17:06;;;;;;;;;32.25;30.00;;;;;20.30;66.52;101044.84;2401826;28;47161;-92
2022/06/20 01:18:22;;;;;;;;;30.00;25.75;;;;;20.29;66.91;101035.16;2377416;28;45286;-92
2022/06/20 01:19:45;;;;;;;;;31.50;29.75;;;;;20.29;67.06;101020.94;2383427;28;46320;-92
2022/06/20 01:20:58;;;;;;;;;30.00;28.25;;;;;20.27;66.69;101026.41;2386949;28;45264;-91
2022/06/20 01:22:27;;;;;;;;;24.25;19.75;;;;;20.24;66.47;101035.47;2396401;28;45586;-91
2022/06/20 01:23:59;;;;;;;;;32.75;26.25;;;;;20.20;66.69;101033.13;2395508;28;45240;-91
2022/06/20 01:25:34;;;;;;;;;28.50;27.00;;;;;20.18;67.11;101029.69;2392380;28;45508;-90
2022/06/20 01:26:44;;;;;;;;;24.00;23.50;;;;;20.11;66.98;101026.59;2407435;28;45274;-92
2022/06/20 01:27:55;;;;;;;;;34.00;33.00;;;;;20.05;66.64;101017.16;2399680;28;48162;-92
2022/06/20 01:29:10;;;;;;;;;28.00;27.00;;;;;20.01;67.21;101013.03;2389974;28;44619;-91
2022/06/20 01:30:24;;;;;;;;;29.50;27.00;;;;;19.95;67.38;101006.28;2388601;28;46157;-92
2022/06/20 01:31:44;;;;;;;;;25.75;24.00;;;;;19.88;67.59;100999.66;2390575;28;45211;-93
2022/06/20 01:32:57;;;;;;;;;32.50;30.50;;;;;19.84;67.73;101003.50;2388240;28;48350;-92
2022/06/20 01:34:08;;;;;;;;;29.00;27.75;;;;;19.78;67.36;100992.31;2402048;28;44695;-89
2022/06/20 01:38:30;;;;;;;;;31.75;29.00;;;;;19.75;67.90;100960.53;2403624;28;45266;-93
2022/06/20 01:39:40;;;;;;;;;36.75;32.25;;;;;19.78;67.99;100962.97;2397130;28;45435;-93
2022/06/20 01:42:23;;;;;;;;;37.50;30.25;;;;;19.73;68.24;100959.75;2403226;28;45407;-90
2022/06/20 01:43:35;;;;;;;;;33.50;29.25;;;;;19.70;67.84;100953.81;2403104;28;47530;-91
2022/06/20 01:45:00;;;;;;;;;32.00;29.50;;;;;19.68;67.95;100946.75;2393573;28;45236;-88
2022/06/20 01:46:13;;;;;;;;;32.00;30.00;;;;;19.69;68.11;100936.94;2389467;28;45372;-92
2022/06/20 01:47:23;;;;;;;;;32.25;29.50;;;;;19.70;68.43;100925.34;2386631;28;44750;-92
2022/06/20 01:48:34;;;;;;;;;32.00;28.25;;;;;19.71;67.82;100929.69;2393762;28;46674;-92
2022/06/20 01:49:47;;;;;;;;;31.50;28.75;;;;;19.70;68.13;100912.00;2390644;28;45266;-93
2022/06/20 01:50:58;;;;;;;;;29.50;26.50;;;;;19.68;68.25;100903.22;2386459;28;45323;-93
2022/06/20 01:52:17;;;;;;;;;31.25;28.25;;;;;19.63;67.91;100892.88;2403263;28;45203;-92
2022/06/20 01:53:31;;;;;;;;;32.00;27.50;;;;;19.62;68.40;100877.00;2402416;28;47367;-92
2022/06/20 01:54:50;;;;;;;;;25.75;24.50;;;;;19.62;68.24;100850.34;2400478;28;45467;-91
2022/06/20 01:56:02;;;;;;;;;29.75;26.50;;;;;19.61;68.38;100836.16;2393679;28;48306;-92
2022/06/20 01:57:15;;;;;;;;;31.75;30.00;;;;;19.62;69.00;100813.03;2396246;28;45334;-93
2022/06/20 01:58:31;;;;;;;;;32.50;30.75;;;;;19.59;67.95;100797.25;2390847;28;45353;-89
2022/06/20 01:59:49;;;;;;;;;36.75;31.00;;;;;19.57;68.53;100757.38;2395616;28;45449;-89
2022/06/20 02:01:02;;;;;;;;;31.00;27.00;;;;;19.53;67.94;100708.75;2386634;28;47289;-92
2022/06/20 02:02:13;;;;;;;;;27.50;24.75;;;;;19.50;69.12;100681.47;2396584;28;45417;-93
2022/06/20 02:03:23;;;;;;;;;34.25;29.00;;;;;19.48;69.16;100673.59;2400234;28;45302;-93
2022/06/20 02:04:36;;;;;;;;;32.25;26.75;;;;;19.44;69.22;100666.78;2393353;28;45311;-90
2022/06/20 02:05:49;;;;;;;;;27.00;25.50;;;;;19.43;68.91;100676.56;2393056;28;47128;-88
2022/06/20 02:07:02;;;;;;;;;27.00;26.25;;;;;19.41;68.60;100673.16;2396548;28;45654;-89
2022/06/20 02:08:15;;;;;;;;;31.00;28.50;;;;;19.41;68.62;100675.84;2402629;28;48490;-88
2022/06/20 02:09:26;;;;;;;;;32.00;26.25;;;;;19.43;68.72;100694.41;2399479;28;45265;-90
2022/06/20 02:10:46;;;;;;;;;35.00;28.50;;;;;19.41;68.70;100699.00;2402626;28;47666;-90
2022/06/20 02:11:59;;;;;;;;;34.25;30.75;;;;;19.41;68.74;100710.47;2393448;28;45339;-90
2022/06/20 02:13:11;;;;;;;;;29.75;27.75;;;;;19.41;68.84;100712.31;2396814;28;47147;-88
2022/06/20 02:14:26;;;;;;;;;28.75;26.50;;;;;19.43;68.93;100719.22;2402852;28;45218;-88
2022/06/20 02:15:38;;;;;;;;;27.00;23.75;;;;;19.45;68.96;100717.31;2385160;28;45311;-88
2022/06/20 02:16:57;;;;;;;;;31.50;30.50;;;;;19.50;68.94;100721.47;2403026;28;44609;-88
2022/06/20 02:18:08;;;;;;;;;25.25;22.50;;;;;19.49;68.93;100725.06;2398760;28;48193;-91
2022/06/20 02:19:24;;;;;;;;;26.75;24.25;;;;;19.51;68.91;100734.66;2393150;28;45281;-90
2022/06/20 02:20:45;;;;;;;;;28.50;26.50;;;;;19.54;68.87;100733.59;2402667;28;47097;-92
2022/06/20 02:22:03;;;;;;;;;32.75;26.75;;;;;19.60;68.99;100740.31;2397391;28;45195;-91
2022/06/20 02:23:17;;;;;;;;;28.75;27.25;;;;;19.66;69.07;100732.72;2394773;28;48094;-88
2022/06/20 02:24:34;;;;;;;;;28.75;26.25;;;;;19.71;69.13;100743.03;2386761;28;45512;-89
2022/06/20 02:25:47;;;;;;;;;26.75;26.00;;;;;19.76;68.62;100750.72;2394402;28;47270;-90
2022/06/20 02:27:02;;;;;;;;;26.50;24.75;;;;;19.78;68.81;100746.13;2400133;28;45844;-87
2022/06/20 02:28:31;;;;;;;;;30.00;28.00;;;;;19.83;68.45;100757.31;2394176;28;45427;-87
2022/06/20 02:29:41;;;;;;;;;27.75;24.75;;;;;19.86;68.68;100766.91;2391518;28;45325;-88
2022/06/20 02:30:52;;;;;;;;;26.75;25.00;;;;;19.89;68.68;100772.00;2403111;28;45276;-87
2022/06/20 02:32:06;;;;;;;;;27.50;25.75;;;;;19.95;68.59;100776.88;2394097;28;44628;-87
2022/06/20 02:33:22;;;;;;;;;31.75;29.75;;;;;19.96;68.30;100783.94;2397120;28;46363;-87
2022/06/20 02:34:33;;;;;;;;;31.00;26.75;;;;;19.99;68.36;100791.72;2398933;28;45279;-88
2022/06/20 02:35:44;;;;;;;;;30.00;24.50;;;;;20.02;68.60;100788.84;2395712;28;47115;-88
2022/06/20 02:36:58;;;;;;;;;27.50;23.75;;;;;20.04;68.53;100786.06;2399944;28;45287;-89
2022/06/20 02:38:09;;;;;;;;;31.75;29.00;;;;;20.06;68.48;100793.94;2399391;28;46525;-85
2022/06/20 02:39:21;;;;;;;;;29.50;26.75;;;;;20.08;68.59;100802.69;2393740;28;45547;-85
2022/06/20 02:40:31;;;;;;;;;27.50;26.50;;;;;20.10;68.33;100806.09;2395661;28;46916;-90
2022/06/20 02:41:46;;;;;;;;;27.75;24.50;;;;;20.13;67.89;100813.91;2399856;28;44691;-88
2022/06/20 02:43:03;;;;;;;;;26.00;22.50;;;;;20.13;67.94;100824.56;2397904;28;47925;-89
2022/06/20 02:44:19;;;;;;;;;29.25;25.50;;;;;20.16;68.36;100828.84;2399595;28;45424;-91
2022/06/20 02:45:31;;;;;;;;;30.00;28.25;;;;;20.15;67.65;100829.81;2394583;28;48359;-92
2022/06/20 02:46:42;;;;;;;;;26.25;23.25;;;;;20.13;67.63;100843.25;2400337;28;45286;-92
2022/06/20 02:47:57;;;;;;;;;36.50;27.75;;;;;20.10;67.30;100851.47;2392925;28;47374;-92
2022/06/20 02:49:09;;;;;;;;;24.00;22.25;;;;;20.08;67.21;100851.56;2393330;28;44808;-89
2022/06/20 02:50:24;;;;;;;;;28.50;27.25;;;;;20.03;67.55;100859.03;2393829;28;45457;-88
2022/06/20 02:51:38;;;;;;;;;28.00;26.50;;;;;19.99;67.56;100870.91;2394085;28;44703;-89
2022/06/20 02:52:58;;;;;;;;;28.00;26.00;;;;;19.95;67.95;100878.25;2393281;28;48326;-89
2022/06/20 02:54:12;;;;;;;;;33.25;26.00;;;;;19.93;67.63;100885.50;2389432;28;45262;-87
2022/06/20 02:55:24;;;;;;;;;27.25;26.50;;;;;19.92;67.88;100889.16;2387685;28;48546;-91
2022/06/20 02:56:42;;;;;;;;;30.75;27.25;;;;;19.90;67.79;100891.09;2401371;28;45272;-90
2022/06/20 02:57:57;;;;;;;;;26.75;24.75;;;;;19.88;67.61;100892.97;2392793;28;48249;-90
2022/06/20 02:59:16;;;;;;;;;31.00;28.25;;;;;19.82;68.15;100888.94;2396055;28;45442;-91
2022/06/20 03:00:35;;;;;;;;;25.25;25.25;;;;;19.76;68.14;100892.03;2402331;28;47500;-90
2022/06/20 03:01:53;;;;;;;;;32.25;29.00;;;;;19.70;68.48;100893.34;2398863;28;45317;-91
2022/06/20 03:03:15;;;;;;;;;33.75;28.25;;;;;19.62;68.12;100883.19;2393625;28;45570;-91
2022/06/20 03:04:25;;;;;;;;;31.00;29.25;;;;;19.60;67.97;100886.94;2392275;28;45212;-91
2022/06/20 03:05:38;;;;;;;;;25.50;23.75;;;;;19.56;68.43;100881.81;2392121;28;47246;-89
2022/06/20 03:06:56;;;;;;;;;32.25;30.25;;;;;19.51;68.28;100894.59;2393176;28;45336;-90
2022/06/20 03:08:08;;;;;;;;;27.00;27.00;;;;;19.51;68.45;100899.91;2402561;28;48460;-92
2022/06/20 03:09:26;;;;;;;;;25.25;24.75;;;;;19.50;68.41;100916.03;2393086;28;45244;-88
2022/06/20 03:10:44;;;;;;;;;33.50;28.00;;;;;19.51;69.07;100923.91;2396495;28;47301;-88
2022/06/20 03:11:54;;;;;;;;;29.75;28.75;;;;;19.51;68.52;100933.72;2399249;28;45206;-88
2022/06/20 03:13:07;;;;;;;;;34.00;30.00;;;;;19.51;68.91;100934.56;2404805;28;47072;-87
2022/06/20 03:14:21;;;;;;;;;30.00;28.75;;;;;19.52;68.89;100927.44;2394201;28;45453;-88
2022/06/20 03:15:33;;;;;;;;;30.50;29.00;;;;;19.51;68.61;100925.72;2392640;28;46180;-87
2022/06/20 03:16:43;;;;;;;;;32.00;27.50;;;;;19.52;69.04;100930.09;2402580;28;45262;-87
2022/06/20 03:17:57;;;;;;;;;31.00;29.25;;;;;19.52;68.85;100936.28;2399630;28;47796;-87
2022/06/20 03:19:22;;;;;;;;;31.75;27.50;;;;;19.54;69.27;100945.03;2393107;28;44752;-88
2022/06/20 03:20:34;;;;;;;;;34.75;30.00;;;;;19.54;68.86;100953.03;2401291;28;48567;-92
2022/06/20 03:21:47;;;;;;;;;31.50;28.00;;;;;19.54;68.95;100958.38;2401447;28;45191;-91
2022/06/20 03:23:23;;;;;;;;;30.50;26.50;;;;;19.55;69.34;100962.75;2397687;28;47331;-91
2022/06/20 03:24:35;;;;;;;;;33.00;29.25;;;;;19.53;68.89;100959.31;2383546;28;44817;-91
2022/06/20 03:25:47;;;;;;;;;33.25;30.00;;;;;19.55;68.84;100962.75;2393088;28;48244;-93
2022/06/20 03:27:01;;;;;;;;;35.25;32.25;;;;;19.51;68.76;100950.56;2393358;28;45488;-94
2022/06/20 03:28:16;;;;;;;;;39.25;33.50;;;;;19.49;68.56;100951.63;2396155;28;47553;-93
2022/06/20 03:29:26;;;;;;;;;35.25;30.50;;;;;19.45;69.17;100951.00;2399400;28;45299;-93
2022/06/20 03:30:37;;;;;;;;;37.00;33.50;;;;;19.44;69.51;100959.94;2386700;28;46938;-93
2022/06/20 03:31:47;;;;;;;;;34.75;33.00;;;;;19.42;68.90;100968.03;2386627;28;45245;-93
2022/06/20 03:33:00;;;;;;;;;40.25;34.50;;;;;19.43;69.11;100974.25;2395715;28;47789;-91
2022/06/20 03:34:12;;;;;;;;;23.50;19.25;;;;;19.42;69.16;100978.72;2398598;28;44679;-91
2022/06/20 03:35:22;;;;;;;;;41.75;35.25;;;;;19.39;68.98;100978.91;2385919;28;47408;-89
2022/06/20 03:36:34;;;;;;;;;44.75;36.75;;;;;19.36;69.24;100983.59;2386216;28;45426;-90
2022/06/20 03:37:45;;;;;;;;;41.75;33.25;;;;;19.36;69.54;100997.75;2392861;28;48079;-90
2022/06/20 03:38:56;;;;;;;;;38.25;33.00;;;;;19.37;69.05;100995.94;2386125;28;45298;-92
2022/06/20 03:40:08;;;;;;;;;42.75;36.25;;;;;19.37;69.61;101001.28;2386161;28;48113;-93
2022/06/20 03:41:23;;;;;;;;;47.25;35.50;;;;;19.39;69.75;100996.69;2386606;28;45294;-92
2022/06/20 03:42:33;;;;;;;;;42.75;34.75;;;;;19.38;69.35;100990.53;2390325;28;47159;-88
2022/06/20 03:44:22;;;;;;;;;37.50;33.75;;;;;19.41;69.51;100989.47;2395609;28;45195;-89
2022/06/20 03:45:38;;;;;;;;;38.00;34.50;;;;;19.43;69.71;100992.91;2392382;28;47866;-91
2022/06/20 03:46:55;;;;;;;;;32.25;30.50;;;;;19.42;69.43;100988.50;2396467;28;45282;-90
2022/06/20 03:48:19;;;;;;;;;44.00;32.75;;;;;19.41;69.87;100994.81;2398916;28;45231;-91
2022/06/20 03:49:43;;;;;;;;;40.75;33.00;;;;;19.37;69.24;100996.81;2402306;28;44688;-92
2022/06/20 03:51:04;;;;;;;;;36.75;32.00;;;;;19.33;69.34;100995.31;2393326;28;46375;-91
2022/06/20 03:52:21;;;;;;;;;36.75;31.25;;;;;19.27;69.28;100993.91;2393038;28;44631;-91
2022/06/20 03:53:43;;;;;;;;;32.00;30.75;;;;;19.25;69.33;100990.50;2392812;28;45748;-89
2022/06/20 03:55:27;;;;;;;;;35.75;32.25;;;;;19.19;69.87;100993.53;2392882;28;45326;-92
2022/06/20 03:56:46;;;;;;;;;27.75;26.50;;;;;19.11;69.38;100994.03;2391913;28;47354;-94
2022/06/20 03:58:30;;;;;;;;;38.00;31.75;;;;;19.09;69.28;101009.25;2395874;28;45349;-91
2022/06/20 03:59:54;;;;;;;;;34.00;31.25;;;;;19.03;69.98;101009.66;2395513;28;47623;-93
2022/06/20 04:01:24;;;;;;;;;34.50;31.25;;;;;19.01;69.98;101020.44;2398531;28;45265;-92
2022/06/20 04:02:46;;;;;;;;;34.25;25.25;;;;;18.98;69.33;101024.13;2396656;28;46639;-92
2022/06/20 04:04:20;;;;;;;;;30.25;28.75;;;;;18.98;69.43;101015.28;2387752;28;44554;-91
2022/06/20 04:05:38;;;;;;;;;34.50;27.75;;;;;18.99;69.63;101024.97;2391574;28;47354;-93
2022/06/20 04:07:01;;;;;;;;;31.50;28.75;;;;;18.97;69.32;101025.09;2393841;28;45218;-88
2022/06/20 04:08:19;;;;;;;;;36.50;29.75;;;;;18.98;69.43;101032.13;2384132;28;45383;-89
2022/06/20 04:11:27;;;;;;;;;34.75;30.50;;;;;18.98;69.98;101034.78;2383987;28;45460;-93
2022/06/20 04:12:53;;;;;;;;;33.75;29.50;;;;;19.00;69.57;101035.53;2391437;28;45193;-92
2022/06/20 04:14:25;;;;;;;;;36.25;32.00;;;;;19.01;69.39;101034.56;2392654;28;47276;-93
2022/06/20 04:15:44;;;;;;;;;33.00;27.25;;;;;18.98;69.87;101025.94;2391722;28;45263;-92
2022/06/20 04:18:27;;;;;;;;;32.75;31.25;;;;;18.97;70.01;101033.06;2402326;28;47276;-93
2022/06/20 04:18:48;;;;;;;;;37.50;30.75;;;;;18.95;69.06;101040.31;2384314;28;44620;-91
2022/06/20 04:20:00;;;;;;;;;37.75;31.50;;;;;18.93;70.14;101041.34;2393824;28;46172;-91
2022/06/20 04:21:29;;;;;;;;;33.25;31.75;;;;;18.88;69.70;101042.53;2398071;28;45731;-91
2022/06/20 04:22:43;;;;;;;;;35.50;29.50;;;;;18.83;69.43;101033.97;2393484;28;45695;-93
2022/06/20 04:24:33;;;;;;;;;30.25;28.25;;;;;18.80;69.10;101035.94;2402036;28;45357;-93
2022/06/20 04:25:57;;;;;;;;;37.75;32.50;;;;;18.76;69.42;101043.28;2394513;28;45278;-96
2022/06/20 04:27:20;;;;;;;;;31.00;29.00;;;;;18.74;69.56;101054.03;2397796;28;45937;-95
2022/06/20 04:28:55;;;;;;;;;32.50;28.25;;;;;18.72;69.66;101053.25;2393039;28;48652;-94
2022/06/20 04:30:10;;;;;;;;;27.25;26.75;;;;;18.70;69.27;101051.66;2392775;28;45314;-89
2022/06/20 04:31:35;;;;;;;;;34.25;28.75;;;;;18.67;69.87;101058.88;2393034;28;47101;-87
2022/06/20 04:32:51;;;;;;;;;37.00;31.25;;;;;18.62;69.35;101054.81;2383561;28;45275;-94
2022/06/20 04:34:11;;;;;;;;;28.50;27.50;;;;;18.60;69.30;101046.03;2384623;28;47515;-95
2022/06/20 04:35:28;;;;;;;;;32.50;30.00;;;;;18.58;69.71;101059.47;2396641;28;45250;-92
2022/06/20 04:36:50;;;;;;;;;30.75;28.00;;;;;18.59;69.56;101063.00;2398601;28;46649;-94
2022/06/20 04:38:14;;;;;;;;;30.75;30.00;;;;;18.57;69.75;101065.72;2383710;28;45223;-92
2022/06/20 04:39:56;;;;;;;;;32.75;29.75;;;;;18.53;69.90;101056.22;2387123;28;47452;-91
2022/06/20 04:41:35;;;;;;;;;32.25;30.00;;;;;18.52;69.80;101067.84;2387686;28;45129;-92
2022/06/20 04:42:51;;;;;;;;;26.50;26.25;;;;;18.53;69.87;101074.84;2383425;28;47528;-93
2022/06/20 04:44:17;;;;;;;;;29.25;25.50;;;;;18.49;69.65;101076.88;2389987;28;44828;-87
2022/06/20 04:46:01;;;;;;;;;39.00;30.50;;;;;18.47;69.66;101088.56;2391536;28;45302;-87
2022/06/20 04:47:38;;;;;;;;;35.75;31.00;;;;;18.44;69.29;101085.13;2385951;28;45338;-86
2022/06/20 04:48:50;;;;;;;;;35.50;31.50;;;;;18.44;69.51;101085.13;2391882;28;47052;-88
2022/06/20 04:50:00;;;;;;;;;32.75;31.25;;;;;18.42;69.99;101088.84;2386069;28;44696;-87
2022/06/20 04:51:16;;;;;;;;;33.00;28.00;;;;;18.41;69.43;101098.63;2393877;28;45456;-87
2022/06/20 04:52:29;;;;;;;;;38.00;31.25;;;;;18.41;69.38;101100.41;2399882;28;45194;-87
2022/06/20 04:53:42;;;;;;;;;33.25;31.50;;;;;18.39;69.79;101097.00;2392029;28;48057;-88
2022/06/20 04:54:54;;;;;;;;;34.50;29.50;;;;;18.38;69.39;101101.47;2397468;28;45485;-87
2022/06/20 04:56:09;;;;;;;;;33.75;31.75;;;;;18.38;69.51;101104.13;2387618;28;45543;-87
2022/06/20 04:57:21;;;;;;;;;31.75;29.25;;;;;18.40;69.32;101098.69;2395632;28;45479;-87
2022/06/20 04:58:42;;;;;;;;;29.50;28.50;;;;;18.43;69.41;101107.38;2392882;28;45419;-87
2022/06/20 04:59:57;;;;;;;;;39.75;33.25;;;;;18.47;69.70;101099.19;2393316;28;45471;-87
2022/06/20 05:01:08;;;;;;;;;42.00;33.75;;;;;18.52;69.57;101107.75;2402032;28;45299;-87
2022/06/20 05:02:22;;;;;;;;;35.00;30.00;;;;;18.50;69.12;101110.50;2394761;28;45252;-87
2022/06/20 05:03:39;;;;;;;;;34.75;28.00;;;;;18.54;69.50;101113.84;2391995;28;47692;-88
2022/06/20 05:04:53;;;;;;;;;29.25;27.00;;;;;18.55;69.21;101119.06;2397148;28;45303;-88
2022/06/20 05:06:09;;;;;;;;;38.75;31.75;;;;;18.55;69.25;101116.41;2400593;28;45435;-88
2022/06/20 05:07:34;;;;;;;;;35.00;31.00;;;;;18.54;69.34;101112.00;2393285;28;45489;-87
2022/06/20 05:08:50;;;;;;;;;31.50;28.50;;;;;18.54;68.86;101122.66;2393667;28;48032;-88
2022/06/20 05:10:07;;;;;;;;;35.75;30.25;;;;;18.56;69.39;101125.25;2393612;28;45257;-88
2022/06/20 05:11:25;;;;;;;;;41.25;31.75;;;;;18.52;69.03;101124.56;2399459;28;48012;-88
2022/06/20 05:12:46;;;;;;;;;36.25;33.50;;;;;18.49;69.10;101124.78;2391896;28;45256;-88
2022/06/20 05:14:06;;;;;;;;;33.00;30.25;;;;;18.44;69.04;101122.41;2394014;28;45450;-87
2022/06/20 05:15:27;;;;;;;;;38.75;31.50;;;;;18.42;69.39;101115.44;2394710;28;45274;-86
2022/06/20 05:16:45;;;;;;;;;33.50;31.50;;;;;18.42;69.66;101118.94;2404029;28;46412;-87
2022/06/20 05:17:57;;;;;;;;;34.00;31.50;;;;;18.45;70.04;101117.91;2399246;28;45275;-87
2022/06/20 05:19:15;;;;;;;;;39.50;31.75;;;;;18.49;69.14;101129.22;2394046;28;45368;-87
2022/06/20 05:20:35;;;;;;;;;39.25;32.75;;;;;18.50;69.41;101125.59;2393787;28;44629;-87
2022/06/20 05:21:50;;;;;;;;;33.25;32.00;;;;;18.52;69.22;101129.06;2394150;28;46203;-87
2022/06/20 05:23:26;;;;;;;;;37.50;30.50;;;;;18.55;69.09;101128.84;2394624;28;45304;-86
2022/06/20 05:24:39;;;;;;;;;26.50;23.75;;;;;18.57;68.94;101132.25;2394945;28;46423;-90
2022/06/20 05:25:51;;;;;;;;;32.00;28.00;;;;;18.58;68.44;101128.66;2393844;28;45401;-91
2022/06/20 05:27:11;;;;;;;;;35.50;32.00;;;;;18.58;68.88;101122.47;2396105;28;46885;-91
2022/06/20 05:28:24;;;;;;;;;28.00;24.00;;;;;18.59;69.02;101122.41;2406453;28;45318;-90
2022/06/20 05:29:37;;;;;;;;;34.75;28.25;;;;;18.62;68.86;101129.34;2399626;28;47200;-91
2022/06/20 05:30:47;;;;;;;;;31.75;29.50;;;;;18.62;68.60;101127.53;2393600;28;45192;-89
2022/06/20 05:32:02;;;;;;;;;30.00;30.00;;;;;18.61;68.80;101128.50;2392997;28;46987;-91
2022/06/20 05:33:17;;;;;;;;;34.00;30.25;;;;;18.60;68.78;101134.75;2390479;28;45546;-89
2022/06/20 05:34:46;;;;;;;;;36.75;30.25;;;;;18.59;68.90;101141.03;2399365;28;45682;-90
2022/06/20 05:36:18;;;;;;;;;30.75;26.50;;;;;18.54;68.73;101135.97;2393654;28;45314;-89
2022/06/20 05:37:37;;;;;;;;;34.00;30.25;;;;;18.52;68.75;101129.06;2398037;28;47103;-90
2022/06/20 05:38:57;;;;;;;;;32.00;28.00;;;;;18.55;68.65;101136.84;2393546;28;45203;-89
2022/06/20 05:40:18;;;;;;;;;25.25;24.25;;;;;18.55;68.66;101150.13;2388038;28;47203;-90
2022/06/20 05:41:28;;;;;;;;;27.00;24.50;;;;;18.53;68.36;101147.59;2394498;28;45231;-91
2022/06/20 05:42:39;;;;;;;;;30.50;27.00;;;;;18.52;68.05;101145.03;2394786;28;46226;-93
2022/06/20 05:43:49;;;;;;;;;33.50;29.75;;;;;18.50;68.44;101154.88;2394440;28;45294;-92
2022/06/20 05:45:01;;;;;;;;;26.75;23.00;;;;;18.48;68.67;101151.47;2393310;28;47007;-89
2022/06/20 05:46:32;;;;;;;;;28.00;23.00;;;;;18.47;68.80;101165.72;2393298;28;44970;-89
2022/06/20 05:47:49;;;;;;;;;31.25;28.00;;;;;18.45;68.39;101165.81;2394098;28;46479;-89
2022/06/20 05:49:05;;;;;;;;;25.75;25.50;;;;;18.46;68.52;101164.00;2393610;28;44653;-89
2022/06/20 05:50:34;;;;;;;;;30.25;27.00;;;;;18.47;68.91;101168.41;2397187;28;48050;-92
2022/06/20 05:51:46;;;;;;;;;33.75;30.50;;;;;18.40;68.72;101162.56;2388879;28;45368;-93
2022/06/20 05:52:59;;;;;;;;;34.25;27.50;;;;;18.37;68.64;101165.44;2387354;28;46348;-93
2022/06/20 05:54:18;;;;;;;;;29.50;29.00;;;;;18.36;68.66;101172.53;2386129;28;44696;-93
2022/06/20 05:55:41;;;;;;;;;30.00;25.25;;;;;18.32;69.24;101171.03;2397532;28;47264;-94
2022/06/20 05:56:58;;;;;;;;;32.00;26.00;;;;;18.32;68.71;101171.03;2386618;28;45433;-88